WEATHER DATA

YESTERDAY
Time Temp. Dewp. Hum. Wind dir Wind speed Wind gust Bar.
00:10 16.4 6.8 53 45 0.8 1.1 1008.5
00:20 16.2 6.6 53 42 0.8 1.1 1008.4
00:30 15.9 6.3 53 47 0.8 1.1 1008.3
00:40 15.8 6.3 53 45 0.8 1.1 1008.2
00:50 15.6 6.1 53 45 0.3 1.1 1008.1
01:00 15.4 6.1 54 42 0.8 1.1 1008
01:10 15.2 6 54 45 0.3 1.1 1007.9
01:20 15 5.8 54 45 0.8 1.1 1007.9
01:30 14.9 5.7 54 48 0.3 1.1 1007.8
01:40 14.7 5.8 55 45 0.3 0.8 1007.8
01:50 14.5 5.6 55 45 0.8 1.1 1007.8
02:00 14.3 5.4 55 45 0.3 1.1 1007.8
02:10 14.2 5.3 55 48 0.3 1.1 1007.7
02:20 14 5.1 55 38 0.3 1.1 1007.5
02:31 13.8 5.2 56 45 0.3 1.1 1007.4
02:40 13.7 5.1 56 51 0.3 1.1 1007.4
02:50 13.5 4.9 56 48 0.8 1.1 1007.5
03:01 13.4 4.8 56 45 0.8 1.1 1007.4
03:11 13.3 4.7 56 45 0.3 1.1 1007.3
03:20 13.2 4.6 56 45 0.3 1.1 1007.3
03:30 13 4.7 57 48 0.3 1.1 1007.1
03:41 12.9 4.6 57 37 0.3 1.1 1007.1
03:51 12.8 4.5 57 45 0.3 1.1 1007.1
04:01 12.7 4.4 57 37 0.3 1.1 1007.2
04:11 12.5 4.2 57 45 0.3 1.1 1007.2
04:21 12.4 4.1 57 45 0.3 1.1 1007.1
04:31 12.3 4.3 58 45 0.3 1.1 1007.1
04:41 12.2 4.2 58 52 0.3 1.1 1007
04:51 12.1 4.1 58 48 0.3 1.1 1006.8
05:01 12.1 4.1 58 52 0.3 1.1 1006.8
05:11 11.9 3.9 58 45 0.3 0.8 1007
05:22 11.9 3.9 58 54 0.3 1.1 1006.8
05:31 11.8 3.8 58 45 0.3 1.1 1006.8
05:41 11.7 4 59 51 0.3 1.1 1006.7
05:51 11.7 4 59 53 0.3 0.8 1006.7
06:02 11.7 4 59 54 0.3 0.8 1006.7
06:12 11.7 4 59 90 0.3 1.1 1006.7
06:21 11.7 4 59 90 0.3 0.8 1006.6
06:32 11.8 4.1 59 90 0.3 0.8 1006.5
06:42 12 4.2 59 90 0.3 0.8 1006.5
06:52 12.3 4.8 60 90 0.3 1.1 1006.5
07:01 12.7 5.1 60 345 1.1 2.2 1006.6
07:12 13.2 5.6 60 45 0.8 1.4 1006.6
07:22 13.9 6.3 60 90 0.3 1.1 1006.7
07:32 14.7 7 60 90 0.8 2.2 1006.7
07:42 15.5 7.8 60 56 1.1 2.2 1006.6
07:52 16.2 8.7 61 59 0.8 2.2 1006.4
08:02 17 9.4 61 90 0.3 1.4 1006.6
08:12 17.7 10.1 61 68 0.8 2.5 1006.5
08:22 18.3 10.7 61 45 0.8 2.5 1006.4
08:32 18.9 11.2 61 56 0.8 3.1 1006.3
08:42 19.5 11.8 61 37 0.8 2.5 1006.4
08:53 20.2 12.4 61 49 1.1 4.2 1006.6
09:02 20.7 12.9 61 50 1.1 3.1 1006.5
09:12 21.2 13.4 61 71 1.4 3.9 1006.6
09:22 21.5 13.7 61 69 0.8 2.5 1006.4
09:33 22 14.1 61 55 1.1 3.1 1006.4
09:43 22.6 14.4 60 45 0.8 3.1 1006.5
09:52 23.1 14.9 60 75 1.1 3.9 1006.7
10:03 23.6 15.4 60 56 1.4 4.7 1006.6
10:13 24.1 15.9 60 74 1.7 5 1006.6
10:23 24.6 16.3 60 67 1.7 5.6 1006.5
10:33 25 16.4 59 79 1.1 3.1 1006.4
10:43 25.4 16.8 59 66 1.1 2.8 1006.4
10:53 25.7 17.1 59 70 1.4 3.6 1006.2
11:03 26.1 17.2 58 65 1.7 5 1006.3
11:13 26.4 17.5 58 83 1.7 5.3 1006.4
11:23 26.7 17.5 57 75 1.1 2.8 1006.3
11:33 27 17.8 57 73 1.1 3.9 1006.5
11:43 27.1 17.6 56 73 2.2 5.6 1006.5
11:54 27.3 17.8 56 72 1.1 4.2 1006.5
12:03 27.4 17.6 55 77 1.4 6.1 1006.5
12:13 27.5 17.7 55 73 1.4 4.2 1006.3
12:24 27.7 17.8 55 84 1.7 4.2 1006.2
12:34 27.8 17.6 54 98 1.4 4.2 1006.1
12:43 27.9 17.7 54 82 1.4 4.7 1006
12:54 28 17.5 53 90 1.4 6.4 1006
13:04 28 17.5 53 72 2.2 6.4 1006
13:14 28.1 17.3 52 66 1.4 4.2 1005.9
13:23 28.2 17.4 52 79 1.4 5.6 1005.8
13:34 28.3 17.5 52 90 1.4 6.1 1005.7
13:44 28.5 17.4 51 70 1.7 6.9 1005.6
13:50 28.5 17.4 51 90 1.4 6.1 1005.6
14:00 28.7 17.6 51 78 1.4 3.9 1005.5
14:10 28.8 17.3 50 74 1.4 4.7 1005.5
14:20 28.9 17.4 50 79 1.7 5.3 1005.6
14:30 29 17.2 49 74 1.4 7.5 1005.4
14:40 28.8 17 49 71 1.4 5.6 1005.2
14:49 28.5 16.4 48 57 2.5 7.5 1005.2
14:59 28.3 16.2 48 59 2.2 6.9 1005
15:09 28.2 16.2 48 63 2.2 8.6 1005
15:20 28 15.6 47 59 1.7 5.6 1004.9
15:29 27.8 15.5 47 60 1.7 5.3 1004.8
15:39 27.6 15.3 47 67 1.4 4.7 1004.6
15:50 27.4 14.8 46 59 1.7 4.2 1004.5
16:00 27.3 14.7 46 90 0.8 2.8 1004.5
16:09 27.4 14.8 46 79 1.4 3.9 1004.4
16:19 27.6 14.9 46 75 1.1 3.9 1004.4
16:31 27.8 15.1 46 73 1.7 6.9 1004.2
16:41 27.9 14.9 45 71 1.4 4.2 1004.2
16:51 28 15 45 66 1.7 5.3 1004.1
17:06 28.2 15.1 45 69 1.7 6.7 1004.2
17:16 28.2 15.1 45 70 1.7 5.3 1004
17:26 28.2 14.8 44 64 1.7 5.6 1004
17:35 28.2 14.8 44 58 1.7 4.7 1004.1
17:46 28.2 14.8 44 61 1.7 4.7 1004.1
17:56 28 14.6 44 52 1.7 5.6 1004.2
18:06 27.9 14.5 44 45 1.4 2.8 1004.2
18:16 27.7 14.3 44 53 1.7 3.9 1004.2
18:26 27.5 14.2 44 57 1.4 2.8 1004.2
18:36 27.4 13.7 43 25 1.4 3.6 1004.2
18:46 27.1 13.5 43 14 1.7 4.2 1004.3
18:56 27 13.4 43 20 2.2 5 1004.2
19:06 26.7 13.1 43 16 1.7 5 1004.3
19:16 26.5 12.9 43 18 2.2 8.1 1004.3
19:27 26.2 12.6 43 17 1.7 3.9 1004.3
19:36 26 12.5 43 2 1.1 2.5 1004.3
19:46 25.7 12.2 43 7 1.4 2.5 1004.3
19:56 25.4 11.9 43 6 1.4 2.8 1004.5
20:07 25.1 11.7 43 20 1.4 3.1 1004.4
20:17 24.9 11.5 43 11 1.4 3.1 1004.5
20:26 24.6 11.2 43 23 1.4 4.2 1004.6
20:37 24.4 11.4 44 13 1.4 2.8 1004.6
20:47 24.2 11.2 44 20 1.1 2.5 1004.8
20:57 24 11 44 9 1.1 2.8 1004.8
21:07 23.8 10.8 44 5 1.1 1.7 1004.9
21:17 23.5 10.6 44 4 1.1 2.2 1004.9
21:27 23.2 10.3 44 7 1.1 2.2 1005
21:37 22.9 10 44 6 1.1 1.7 1005
21:47 22.5 10 45 2 1.1 2.2 1005.1
21:57 22.1 9.6 45 4 1.1 1.7 1005
22:07 21.5 9.1 45 356 1.1 1.7 1005
22:17 20.9 8.5 45 358 1.1 2.2 1005
22:27 20.4 8.4 46 2 1.1 1.7 1005
22:37 19.8 7.9 46 358 1.1 1.7 1004.9
22:47 19.3 7.4 46 6 1.1 1.4 1004.8
22:58 18.9 7.4 47 6 1.1 1.4 1004.7
23:17 18.3 6.8 47 357 1.1 1.4 1004.5
23:28 18.1 6.9 48 6 0.8 1.7 1004.4
23:38 17.9 6.7 48 5 0.8 1.7 1004.4
23:48 17.7 6.6 48 15 0.8 1.4 1004.3
23:57 17.5 6.7 49 38 0.3 1.4 1004.3

DAY STATISTIC

2021-05-11
TEMPERATURE
AVERAGE
21.2
HIGH
29.0
14:30
LOW
11.7
05:41
PRESSURE
AVERAGE
1005.9
HIGH
1008.5
00:10
LOW
1004.0
17:16
DEWPOINT
AVERAGE
10.9
HIGH
17.8
11:33
LOW
3.8
05:31
HUMIDITY
AVERAGE
52
HIGH
61
07:52
LOW
43
18:36
WIND SPEED
AVERAGE
1.1
HIGH
2.5
14:49
WIND GUST
AVERAGE
3.0
HIGH
8.6
15:09
WIND DIRECTION
PREVAILING
NE
48.6%
N
21.1
NE
48.6
E
30.3
SE
0.0
S
0.0
SW
0.0
W
0.0
NW
0.0
TEMPERATURE (°C)
LOW
11.7
HIGH
29.0
AVERAGE
21.2
PRESSURE (hpa)
LOW
1004.0
HIGH
1008.5
AVERAGE
1005.9
DEVICE